Nearby METAR Reports

 

KORD - Chicago O'hare, Illinois, USA
Distance from station: ESE 10mi, 16km
Updated: Mon, 18-Jun-2018 10:51am CDT
Mostly cloudy
Mostly cloudy
 Wind from WSW
Wind: WSW 13 mph , 20 km/h, Gust: 21 mph , 33 km/h
Temperature: 90°F , 32°C
Heat Index: 97°F , 36°C
Dew Point: 72°F , 22°C
Humidity: 55%
Barometer: 29.96 inHg , 1014.6 hPa
Clouds: Mostly cloudy
Visibility: 10 miles , 16 km
Cloud details: Partly cloudy 5500 ft
Partly cloudy 8000 ft
Mostly cloudy 25000 ft
2018/06/18 15:51 KORD 181551Z 25011G18KT 10SM SCT055 SCT080 BKN250 32/22 A2996 RMK AO2 SLP138 T03170222
KDPA - Chicago/Dupage, Illinois, USA
Distance from station: SW 11mi, 18km
Updated: Mon, 18-Jun-2018 10:52am CDT
Clear
Clear
 Wind from SW
Wind: SW 10 mph , 17 km/h, Gust: 23 mph , 37 km/h
Temperature: 88°F , 31°C
Heat Index: 98°F , 37°C
Dew Point: 75°F , 24°C
Humidity: 66%
Barometer: 29.97 inHg , 1014.9 hPa
Clouds: Clear
Visibility: 8 miles , 13 km
2018/06/18 15:52 KDPA 181552Z 23009G20KT 8SM CLR 31/24 A2997 RMK AO2 SLP142 T03110244
 
KPWK - Palwaukee, Illinois, USA
Distance from station: ENE 12mi, 19km
Updated: Mon, 18-Jun-2018 10:52am CDT
Few Clouds
Few Clouds
 Wind from SW
Wind: SW 10 mph , 17 km/h
Temperature: 90°F , 32°C
Heat Index: 101°F , 38°C
Dew Point: 75°F , 24°C
Humidity: 63%
Barometer: 29.97 inHg , 1014.9 hPa
Clouds: Few Clouds
Visibility: 10 miles , 16 km
Cloud details: Few Clouds 3800 ft
2018/06/18 15:52 KPWK 181552Z 23009KT 10SM FEW038 32/24 A2997 RMK AO2 SLP140 T03220239
KMDW - Chicago, Illinois, USA
Distance from station: SE 26mi, 41km
Updated: Mon, 18-Jun-2018 10:53am CDT
Partly cloudy
Partly cloudy
 Wind from WSW
Wind: WSW 15 mph , 24 km/h, Gust: 21 mph , 33 km/h
Temperature: 90°F , 32°C
Heat Index: 101°F , 38°C
Dew Point: 75°F , 24°C
Humidity: 63%
Barometer: 29.97 inHg , 1014.9 hPa
Clouds: Partly cloudy
Visibility: 10 miles , 16 km
Cloud details: Few Clouds 6500 ft
Partly cloudy 25000 ft
2018/06/18 15:53 KMDW 181553Z 25013G18KT 10SM FEW065 SCT250 32/24 A2997 RMK AO2 SLP135 T03220239
 
KARR - Chicago/Aurora, Illinois, USA
Distance from station: SW 27mi, 43km
Updated: Mon, 18-Jun-2018 10:52am CDT
Clear
Clear
 Wind from SW
Wind: SW 12 mph , 19 km/h
Temperature: 90°F , 32°C
Heat Index: 101°F , 38°C
Dew Point: 75°F , 24°C
Humidity: 63%
Barometer: 29.98 inHg , 1015.2 hPa
Clouds: Clear
Visibility: 9 miles , 14 km
2018/06/18 15:52 KARR 181552Z 23010KT 9SM CLR 32/24 A2998 RMK AO2 SLP146 T03170239
KUGN - Waukegan, Illinois, USA
Distance from station: NNE 29mi, 47km
Updated: Mon, 18-Jun-2018 10:55am CDT
Partly cloudy
Partly cloudy
 Wind from WSW
Wind: WSW 8 mph , 13 km/h
Temperature: 86°F , 30°C
Heat Index: 95°F , 35°C
Dew Point: 75°F , 24°C
Humidity: 70%
Barometer: 29.95 inHg , 1014.2 hPa
Clouds: Partly cloudy
Visibility: 10 miles , 16 km
Cloud details: Few Clouds 3000 ft
Partly cloudy 12000 ft
2018/06/18 15:55 KUGN 181555Z 25007KT 220V280 10SM FEW030 SCT120 30/24 A2995 RMK AO2 SLP125 T03000244
 
KLOT - Romeoville/Chi, Illinois, USA
Distance from station: S 30mi, 49km
Updated: Mon, 18-Jun-2018 11:35am CDT
Partly cloudy
Partly cloudy
 Wind from W
Wind: W 13 mph , 20 km/h, Gust: 22 mph , 35 km/h
Temperature: 90°F , 32°C
Heat Index: 99°F , 37°C
Dew Point: 73°F , 23°C
Humidity: 59%
Barometer: 29.99 inHg , 1015.6 hPa
Clouds: Partly cloudy
Visibility: 10 miles , 16 km
Cloud details: Partly cloudy 3800 ft
Partly cloudy 4500 ft
Partly cloudy 6500 ft
2018/06/18 16:35 KLOT 181635Z AUTO 28011G19KT 10SM SCT038 SCT045 SCT065 32/23 A2999 RMK AO2 T03230230
KDKB - De Kalb, Illinois, USA
Distance from station: WSW 31mi, 50km
Updated: Mon, 18-Jun-2018 11:35am CDT
Partly cloudy
Partly cloudy
 Wind from WSW
Wind: WSW 16 mph , 26 km/h, Gust: 22 mph , 35 km/h
Temperature: 88°F , 31°C
Heat Index: 96°F , 36°C
Dew Point: 73°F , 23°C
Humidity: 62%
Barometer: 30.00 inHg , 1015.9 hPa
Clouds: Partly cloudy
Visibility: 10 miles , 16 km
Cloud details: Partly cloudy 3500 ft
2018/06/18 16:35 KDKB 181635Z AUTO 24014G19KT 10SM SCT035 31/23 A3000 RMK AO2 T03120232
 
KJOT - Joliet, Illinois, USA
Distance from station: S 36mi, 58km
Updated: Mon, 18-Jun-2018 11:35am CDT
Partly cloudy
Partly cloudy
 Wind from SW
Wind: SW 8 mph , 13 km/h
Temperature: 91°F , 33°C
Heat Index: 104°F , 40°C
Dew Point: 77°F , 25°C
Humidity: 63%
Barometer: 29.99 inHg , 1015.6 hPa
Clouds: Partly cloudy
Visibility: 10 miles , 16 km
Cloud details: Partly cloudy 3800 ft
2018/06/18 16:35 KJOT 181635Z AUTO 23007KT 10SM SCT038 33/25 A2999 RMK AO2 T03270252
KENW - Kenosha, Wisconsin, USA
Distance from station: NNE 40mi, 64km
Updated: Mon, 18-Jun-2018 10:53am CDT
Few Clouds
Few Clouds
 Wind from WSW
Wind: WSW 14 mph , 22 km/h, Gust: 23 mph , 37 km/h
Temperature: 88°F , 31°C
Heat Index: 96°F , 36°C
Dew Point: 73°F , 23°C
Humidity: 62%
Barometer: 29.94 inHg , 1013.9 hPa
Clouds: Few Clouds
Visibility: 10 miles , 16 km
Cloud details: Few Clouds 3600 ft
2018/06/18 15:53 KENW 181553Z 25012G20KT 10SM FEW036 31/23 A2994 RMK AO2 SLP134 T03060233
 
KC09 - Morris-Washburn, Illinois, USA
Distance from station: SSW 45mi, 72km
Updated: Mon, 18-Jun-2018 11:35am CDT
Partly cloudy
Partly cloudy
 Wind from WSW
Wind: WSW 10 mph , 17 km/h, Gust: 17 mph , 28 km/h
Temperature: 90°F , 32°C
Heat Index: 104°F , 40°C
Dew Point: 77°F , 25°C
Humidity: 67%
Barometer: 29.98 inHg , 1015.2 hPa
Clouds: Partly cloudy
Visibility: 10 miles , 16 km
Cloud details: Partly cloudy 3600 ft
2018/06/18 16:35 KC09 181635Z AUTO 24009G15KT 10SM SCT036 32/25 A2998 RMK AO2 T03160245
KBUU - Burlington, Wisconsin, USA
Distance from station: NNW 46mi, 73km
Updated: Mon, 18-Jun-2018 11:35am CDT
Mostly cloudy
Mostly cloudy
 Wind from SW
Wind: SW 12 mph , 19 km/h
Temperature: 84°F , 29°C
Heat Index: 89°F , 32°C
Dew Point: 72°F , 22°C
Humidity: 66%
Barometer: 29.94 inHg , 1013.9 hPa
Clouds: Mostly cloudy
Visibility: 10 miles , 16 km
Cloud details: Mostly cloudy 3200 ft
2018/06/18 16:35 KBUU 181635Z AUTO 22010KT 10SM BKN032 29/22 A2994 RMK AO2 T02910222
 
KGYY - Gary Regional, Indiana, USA
Distance from station: SE 46mi, 74km
Updated: Mon, 18-Jun-2018 10:45am CDT
Partly cloudy
Partly cloudy
 Wind from WSW
Wind: WSW 12 mph , 19 km/h, Gust: 24 mph , 39 km/h
Temperature: 88°F , 31°C
Heat Index: 95°F , 35°C
Dew Point: 72°F , 22°C
Humidity: 59%
Barometer: 30.00 inHg , 1015.9 hPa
Clouds: Partly cloudy
Visibility: 10 miles , 16 km
Cloud details: Few Clouds 5000 ft
Partly cloudy 25000 ft
2018/06/18 15:45 KGYY 181545Z 25010G21KT 10SM FEW050 SCT250 31/22 A3000
KIGQ - Chicago/Lansing, Illinois, USA
Distance from station: SE 46mi, 74km
Updated: Mon, 18-Jun-2018 11:35am CDT
Partly cloudy
Partly cloudy
 Wind from W
Wind: W 14 mph , 22 km/h, Gust: 21 mph , 33 km/h
Temperature: 90°F , 32°C
Heat Index: 101°F , 38°C
Dew Point: 75°F , 24°C
Humidity: 63%
Barometer: 29.99 inHg , 1015.6 hPa
Clouds: Partly cloudy
Visibility: 10 miles , 16 km
Cloud details: Partly cloudy 4000 ft
Partly cloudy 4500 ft
2018/06/18 16:35 KIGQ 181635Z AUTO 26012G18KT 10SM SCT040 SCT045 32/24 A2999 RMK AO2 T03210244